sensor_id;sensor_type;location;lat;lon;timestamp;P1;durP1;ratioP1;P2;durP2;ratioP2
61911;SDS011;49973;52.084;5.412;2023-03-01T00:01:48;10.10;;;6.00;;
61911;SDS011;49973;52.084;5.412;2023-03-01T00:04:16;7.90;;;4.53;;
61911;SDS011;49973;52.084;5.412;2023-03-01T00:06:45;6.50;;;4.20;;
61911;SDS011;49973;52.084;5.412;2023-03-01T00:09:14;9.20;;;4.63;;
61911;SDS011;49973;52.084;5.412;2023-03-01T00:11:44;7.40;;;4.90;;
61911;SDS011;49973;52.084;5.412;2023-03-01T00:14:13;6.30;;;4.10;;
61911;SDS011;49973;52.084;5.412;2023-03-01T00:16:45;7.97;;;5.20;;
61911;SDS011;49973;52.084;5.412;2023-03-01T00:19:15;10.80;;;5.23;;
61911;SDS011;49973;52.084;5.412;2023-03-01T00:21:45;7.33;;;4.53;;
61911;SDS011;49973;52.084;5.412;2023-03-01T00:24:14;7.27;;;5.00;;
61911;SDS011;49973;52.084;5.412;2023-03-01T00:26:43;21.23;;;4.87;;
61911;SDS011;49973;52.084;5.412;2023-03-01T00:29:13;7.00;;;4.80;;
61911;SDS011;49973;52.084;5.412;2023-03-01T00:31:42;7.03;;;5.07;;
61911;SDS011;49973;52.084;5.412;2023-03-01T00:34:12;9.87;;;5.90;;
61911;SDS011;49973;52.084;5.412;2023-03-01T00:36:41;7.67;;;4.53;;
61911;SDS011;49973;52.084;5.412;2023-03-01T00:39:11;9.83;;;5.27;;
61911;SDS011;49973;52.084;5.412;2023-03-01T00:41:41;8.50;;;4.97;;
61911;SDS011;49973;52.084;5.412;2023-03-01T00:44:11;6.80;;;5.10;;
61911;SDS011;49973;52.084;5.412;2023-03-01T00:46:39;7.67;;;4.73;;
61911;SDS011;49973;52.084;5.412;2023-03-01T00:49:08;8.17;;;5.10;;
61911;SDS011;49973;52.084;5.412;2023-03-01T00:51:38;8.53;;;5.30;;
61911;SDS011;49973;52.084;5.412;2023-03-01T00:54:08;6.37;;;4.80;;
61911;SDS011;49973;52.084;5.412;2023-03-01T00:56:37;7.27;;;4.93;;
61911;SDS011;49973;52.084;5.412;2023-03-01T00:59:06;7.90;;;5.17;;
61911;SDS011;49973;52.084;5.412;2023-03-01T01:01:34;8.40;;;5.20;;
61911;SDS011;49973;52.084;5.412;2023-03-01T01:04:05;6.60;;;4.90;;
61911;SDS011;49973;52.084;5.412;2023-03-01T01:06:37;5.47;;;4.40;;
61911;SDS011;49973;52.084;5.412;2023-03-01T01:09:11;13.50;;;4.93;;
61911;SDS011;49973;52.084;5.412;2023-03-01T01:11:44;8.50;;;5.10;;
61911;SDS011;49973;52.084;5.412;2023-03-01T01:14:13;6.03;;;4.67;;
61911;SDS011;49973;52.084;5.412;2023-03-01T01:16:42;7.77;;;5.27;;
61911;SDS011;49973;52.084;5.412;2023-03-01T01:19:11;10.10;;;5.97;;
61911;SDS011;49973;52.084;5.412;2023-03-01T01:21:41;10.43;;;6.07;;
61911;SDS011;49973;52.084;5.412;2023-03-01T01:24:11;12.70;;;8.07;;
61911;SDS011;49973;52.084;5.412;2023-03-01T01:26:40;9.53;;;7.17;;
61911;SDS011;49973;52.084;5.412;2023-03-01T01:29:10;11.73;;;6.13;;
61911;SDS011;49973;52.084;5.412;2023-03-01T01:31:40;8.13;;;5.00;;
61911;SDS011;49973;52.084;5.412;2023-03-01T01:34:12;7.53;;;5.17;;
61911;SDS011;49973;52.084;5.412;2023-03-01T01:36:46;8.30;;;5.63;;
61911;SDS011;49973;52.084;5.412;2023-03-01T01:39:16;6.37;;;5.00;;
61911;SDS011;49973;52.084;5.412;2023-03-01T01:41:45;8.60;;;4.97;;
61911;SDS011;49973;52.084;5.412;2023-03-01T01:44:15;33.43;;;17.10;;
61911;SDS011;49973;52.084;5.412;2023-03-01T01:46:46;10.33;;;6.50;;
61911;SDS011;49973;52.084;5.412;2023-03-01T01:49:20;9.87;;;6.13;;
61911;SDS011;49973;52.084;5.412;2023-03-01T01:51:55;15.87;;;4.93;;
61911;SDS011;49973;52.084;5.412;2023-03-01T01:54:29;9.37;;;6.27;;
61911;SDS011;49973;52.084;5.412;2023-03-01T01:57:06;8.03;;;5.73;;
61911;SDS011;49973;52.084;5.412;2023-03-01T01:59:38;9.03;;;5.83;;
61911;SDS011;49973;52.084;5.412;2023-03-01T02:02:10;11.57;;;5.57;;
61911;SDS011;49973;52.084;5.412;2023-03-01T02:04:41;10.43;;;6.00;;
61911;SDS011;49973;52.084;5.412;2023-03-01T02:07:13;8.57;;;5.40;;
61911;SDS011;49973;52.084;5.412;2023-03-01T02:09:45;11.07;;;5.50;;
61911;SDS011;49973;52.084;5.412;2023-03-01T02:12:16;9.77;;;5.73;;
61911;SDS011;49973;52.084;5.412;2023-03-01T02:14:47;12.30;;;6.80;;
61911;SDS011;49973;52.084;5.412;2023-03-01T02:17:16;10.77;;;6.23;;
61911;SDS011;49973;52.084;5.412;2023-03-01T02:19:50;11.60;;;6.80;;
61911;SDS011;49973;52.084;5.412;2023-03-01T02:22:30;9.47;;;5.63;;
61911;SDS011;49973;52.084;5.412;2023-03-01T02:25:03;10.70;;;5.67;;
61911;SDS011;49973;52.084;5.412;2023-03-01T02:27:43;13.70;;;6.73;;
61911;SDS011;49973;52.084;5.412;2023-03-01T02:30:23;14.23;;;6.77;;
61911;SDS011;49973;52.084;5.412;2023-03-01T02:32:53;11.87;;;6.93;;
61911;SDS011;49973;52.084;5.412;2023-03-01T02:35:29;10.77;;;6.73;;
61911;SDS011;49973;52.084;5.412;2023-03-01T02:38:01;10.77;;;6.67;;
61911;SDS011;49973;52.084;5.412;2023-03-01T02:40:31;11.17;;;6.33;;
61911;SDS011;49973;52.084;5.412;2023-03-01T02:43:02;11.30;;;6.73;;
61911;SDS011;49973;52.084;5.412;2023-03-01T02:45:37;14.43;;;7.60;;
61911;SDS011;49973;52.084;5.412;2023-03-01T02:48:11;15.17;;;7.57;;
61911;SDS011;49973;52.084;5.412;2023-03-01T02:50:44;16.83;;;8.77;;
61911;SDS011;49973;52.084;5.412;2023-03-01T02:53:21;11.53;;;7.50;;
61911;SDS011;49973;52.084;5.412;2023-03-01T02:55:55;10.60;;;6.13;;
61911;SDS011;49973;52.084;5.412;2023-03-01T02:58:26;10.73;;;7.37;;
61911;SDS011;49973;52.084;5.412;2023-03-01T03:00:56;11.80;;;6.87;;
61911;SDS011;49973;52.084;5.412;2023-03-01T03:03:28;11.60;;;6.80;;
61911;SDS011;49973;52.084;5.412;2023-03-01T03:05:56;12.67;;;6.73;;
61911;SDS011;49973;52.084;5.412;2023-03-01T03:08:25;10.93;;;6.03;;
61911;SDS011;49973;52.084;5.412;2023-03-01T03:10:54;8.30;;;5.07;;
61911;SDS011;49973;52.084;5.412;2023-03-01T03:13:23;10.77;;;6.70;;
61911;SDS011;49973;52.084;5.412;2023-03-01T03:15:56;10.63;;;6.33;;
61911;SDS011;49973;52.084;5.412;2023-03-01T03:18:26;15.37;;;7.33;;
61911;SDS011;49973;52.084;5.412;2023-03-01T03:20:55;10.90;;;5.47;;
61911;SDS011;49973;52.084;5.412;2023-03-01T03:23:23;9.77;;;6.30;;
61911;SDS011;49973;52.084;5.412;2023-03-01T03:25:52;11.10;;;5.90;;
61911;SDS011;49973;52.084;5.412;2023-03-01T03:28:21;10.13;;;5.63;;
61911;SDS011;49973;52.084;5.412;2023-03-01T03:30:49;10.63;;;6.43;;
61911;SDS011;49973;52.084;5.412;2023-03-01T03:33:19;14.63;;;6.17;;
61911;SDS011;49973;52.084;5.412;2023-03-01T03:35:49;8.80;;;5.90;;
61911;SDS011;49973;52.084;5.412;2023-03-01T03:38:19;10.43;;;5.63;;
61911;SDS011;49973;52.084;5.412;2023-03-01T03:40:49;10.50;;;6.10;;
61911;SDS011;49973;52.084;5.412;2023-03-01T03:43:19;11.53;;;6.47;;
61911;SDS011;49973;52.084;5.412;2023-03-01T03:45:50;12.73;;;6.13;;
61911;SDS011;49973;52.084;5.412;2023-03-01T03:48:20;11.93;;;5.97;;
61911;SDS011;49973;52.084;5.412;2023-03-01T03:50:50;10.53;;;5.87;;
61911;SDS011;49973;52.084;5.412;2023-03-01T03:53:20;10.27;;;6.00;;
61911;SDS011;49973;52.084;5.412;2023-03-01T03:55:49;14.33;;;6.67;;
61911;SDS011;49973;52.084;5.412;2023-03-01T03:58:20;8.73;;;5.57;;
61911;SDS011;49973;52.084;5.412;2023-03-01T04:00:51;9.70;;;5.90;;
61911;SDS011;49973;52.084;5.412;2023-03-01T04:03:24;11.27;;;6.43;;
61911;SDS011;49973;52.084;5.412;2023-03-01T04:05:54;10.90;;;6.93;;
61911;SDS011;49973;52.084;5.412;2023-03-01T04:08:25;10.60;;;6.33;;
61911;SDS011;49973;52.084;5.412;2023-03-01T04:10:57;11.20;;;6.37;;
61911;SDS011;49973;52.084;5.412;2023-03-01T04:13:47;11.77;;;6.93;;
61911;SDS011;49973;52.084;5.412;2023-03-01T04:16:17;12.90;;;6.67;;
61911;SDS011;49973;52.084;5.412;2023-03-01T04:18:47;9.07;;;6.17;;
61911;SDS011;49973;52.084;5.412;2023-03-01T04:21:16;9.23;;;5.60;;
61911;SDS011;49973;52.084;5.412;2023-03-01T04:23:47;9.63;;;5.53;;
61911;SDS011;49973;52.084;5.412;2023-03-01T04:26:19;13.30;;;6.63;;
61911;SDS011;49973;52.084;5.412;2023-03-01T04:28:48;11.70;;;6.63;;
61911;SDS011;49973;52.084;5.412;2023-03-01T04:31:17;7.40;;;5.40;;
61911;SDS011;49973;52.084;5.412;2023-03-01T04:33:50;9.40;;;5.83;;
61911;SDS011;49973;52.084;5.412;2023-03-01T04:36:21;8.83;;;5.17;;
61911;SDS011;49973;52.084;5.412;2023-03-01T04:38:52;9.57;;;6.33;;
61911;SDS011;49973;52.084;5.412;2023-03-01T04:41:22;12.43;;;6.63;;
61911;SDS011;49973;52.084;5.412;2023-03-01T04:43:52;12.73;;;6.53;;
61911;SDS011;49973;52.084;5.412;2023-03-01T04:46:21;9.67;;;6.43;;
61911;SDS011;49973;52.084;5.412;2023-03-01T04:48:51;12.17;;;6.83;;
61911;SDS011;49973;52.084;5.412;2023-03-01T04:51:20;10.67;;;6.00;;
61911;SDS011;49973;52.084;5.412;2023-03-01T04:53:49;11.60;;;6.90;;
61911;SDS011;49973;52.084;5.412;2023-03-01T04:56:18;10.93;;;6.77;;
61911;SDS011;49973;52.084;5.412;2023-03-01T04:58:49;11.97;;;6.37;;
61911;SDS011;49973;52.084;5.412;2023-03-01T05:01:21;13.70;;;6.57;;
61911;SDS011;49973;52.084;5.412;2023-03-01T05:03:52;10.57;;;6.57;;
61911;SDS011;49973;52.084;5.412;2023-03-01T05:06:21;14.87;;;6.80;;
61911;SDS011;49973;52.084;5.412;2023-03-01T05:08:50;13.13;;;5.90;;
61911;SDS011;49973;52.084;5.412;2023-03-01T05:11:18;15.97;;;7.73;;
61911;SDS011;49973;52.084;5.412;2023-03-01T05:13:47;15.07;;;6.67;;
61911;SDS011;49973;52.084;5.412;2023-03-01T05:16:16;15.27;;;7.00;;
61911;SDS011;49973;52.084;5.412;2023-03-01T05:18:46;11.73;;;7.33;;
61911;SDS011;49973;52.084;5.412;2023-03-01T05:21:18;10.20;;;7.13;;
61911;SDS011;49973;52.084;5.412;2023-03-01T05:23:47;16.37;;;8.03;;
61911;SDS011;49973;52.084;5.412;2023-03-01T05:26:17;14.60;;;7.80;;
61911;SDS011;49973;52.084;5.412;2023-03-01T05:28:54;17.33;;;9.03;;
61911;SDS011;49973;52.084;5.412;2023-03-01T05:31:26;17.23;;;8.67;;
61911;SDS011;49973;52.084;5.412;2023-03-01T05:33:55;15.83;;;9.07;;
61911;SDS011;49973;52.084;5.412;2023-03-01T05:36:25;15.30;;;7.93;;
61911;SDS011;49973;52.084;5.412;2023-03-01T05:38:54;15.60;;;8.93;;
61911;SDS011;49973;52.084;5.412;2023-03-01T05:41:23;14.23;;;8.53;;
61911;SDS011;49973;52.084;5.412;2023-03-01T05:43:52;16.30;;;8.77;;
61911;SDS011;49973;52.084;5.412;2023-03-01T05:46:21;15.67;;;7.83;;
61911;SDS011;49973;52.084;5.412;2023-03-01T05:48:51;14.73;;;9.10;;
61911;SDS011;49973;52.084;5.412;2023-03-01T05:51:20;20.73;;;9.87;;
61911;SDS011;49973;52.084;5.412;2023-03-01T05:53:50;14.23;;;8.87;;
61911;SDS011;49973;52.084;5.412;2023-03-01T05:56:19;16.20;;;9.03;;
61911;SDS011;49973;52.084;5.412;2023-03-01T05:58:49;15.43;;;8.30;;
61911;SDS011;49973;52.084;5.412;2023-03-01T06:01:17;15.77;;;8.47;;
61911;SDS011;49973;52.084;5.412;2023-03-01T06:03:46;13.83;;;8.50;;
61911;SDS011;49973;52.084;5.412;2023-03-01T06:06:15;16.63;;;9.23;;
61911;SDS011;49973;52.084;5.412;2023-03-01T06:08:44;15.33;;;8.77;;
61911;SDS011;49973;52.084;5.412;2023-03-01T06:11:14;14.87;;;8.37;;
61911;SDS011;49973;52.084;5.412;2023-03-01T06:13:44;14.77;;;7.73;;
61911;SDS011;49973;52.084;5.412;2023-03-01T06:16:13;14.40;;;8.97;;
61911;SDS011;49973;52.084;5.412;2023-03-01T06:18:42;22.40;;;8.13;;
61911;SDS011;49973;52.084;5.412;2023-03-01T06:21:11;12.23;;;8.00;;
61911;SDS011;49973;52.084;5.412;2023-03-01T06:23:39;17.03;;;8.27;;
61911;SDS011;49973;52.084;5.412;2023-03-01T06:26:08;18.63;;;9.17;;
61911;SDS011;49973;52.084;5.412;2023-03-01T06:28:39;16.63;;;8.50;;
61911;SDS011;49973;52.084;5.412;2023-03-01T06:31:07;12.93;;;8.03;;
61911;SDS011;49973;52.084;5.412;2023-03-01T06:33:37;17.83;;;10.60;;
61911;SDS011;49973;52.084;5.412;2023-03-01T06:36:06;21.23;;;9.30;;
61911;SDS011;49973;52.084;5.412;2023-03-01T06:38:37;15.20;;;8.13;;
61911;SDS011;49973;52.084;5.412;2023-03-01T06:41:07;16.63;;;9.07;;
61911;SDS011;49973;52.084;5.412;2023-03-01T06:43:36;15.27;;;8.90;;
61911;SDS011;49973;52.084;5.412;2023-03-01T06:46:07;17.23;;;10.00;;
61911;SDS011;49973;52.084;5.412;2023-03-01T06:48:36;15.40;;;9.13;;
61911;SDS011;49973;52.084;5.412;2023-03-01T06:51:05;14.23;;;8.67;;
61911;SDS011;49973;52.084;5.412;2023-03-01T06:53:34;13.17;;;8.83;;
61911;SDS011;49973;52.084;5.412;2023-03-01T06:56:03;16.10;;;9.67;;
61911;SDS011;49973;52.084;5.412;2023-03-01T06:58:32;15.73;;;9.33;;
61911;SDS011;49973;52.084;5.412;2023-03-01T07:01:04;12.97;;;8.60;;
61911;SDS011;49973;52.084;5.412;2023-03-01T07:03:35;15.13;;;8.67;;
61911;SDS011;49973;52.084;5.412;2023-03-01T07:06:04;13.87;;;7.97;;
61911;SDS011;49973;52.084;5.412;2023-03-01T07:08:33;16.93;;;9.60;;
61911;SDS011;49973;52.084;5.412;2023-03-01T07:11:02;15.67;;;8.73;;
61911;SDS011;49973;52.084;5.412;2023-03-01T07:13:31;14.13;;;8.47;;
61911;SDS011;49973;52.084;5.412;2023-03-01T07:16:00;17.13;;;10.03;;
61911;SDS011;49973;52.084;5.412;2023-03-01T07:18:30;14.77;;;9.43;;
61911;SDS011;49973;52.084;5.412;2023-03-01T07:21:03;15.93;;;9.77;;
61911;SDS011;49973;52.084;5.412;2023-03-01T07:23:32;15.17;;;9.17;;
61911;SDS011;49973;52.084;5.412;2023-03-01T07:26:01;21.33;;;8.93;;
61911;SDS011;49973;52.084;5.412;2023-03-01T07:28:30;14.87;;;8.80;;
61911;SDS011;49973;52.084;5.412;2023-03-01T07:31:02;15.80;;;9.13;;
61911;SDS011;49973;52.084;5.412;2023-03-01T07:33:34;17.43;;;9.10;;
61911;SDS011;49973;52.084;5.412;2023-03-01T07:36:03;11.33;;;7.53;;
61911;SDS011;49973;52.084;5.412;2023-03-01T07:38:33;13.60;;;7.10;;
61911;SDS011;49973;52.084;5.412;2023-03-01T07:41:02;15.50;;;8.03;;
61911;SDS011;49973;52.084;5.412;2023-03-01T07:43:32;11.10;;;7.53;;
61911;SDS011;49973;52.084;5.412;2023-03-01T07:46:01;11.73;;;7.90;;
61911;SDS011;49973;52.084;5.412;2023-03-01T07:48:31;12.73;;;7.07;;
61911;SDS011;49973;52.084;5.412;2023-03-01T07:51:02;12.03;;;6.37;;
61911;SDS011;49973;52.084;5.412;2023-03-01T07:53:32;12.53;;;7.20;;
61911;SDS011;49973;52.084;5.412;2023-03-01T07:56:02;9.93;;;6.63;;
61911;SDS011;49973;52.084;5.412;2023-03-01T07:58:33;11.50;;;6.57;;
61911;SDS011;49973;52.084;5.412;2023-03-01T08:01:03;8.97;;;7.03;;
61911;SDS011;49973;52.084;5.412;2023-03-01T08:03:33;9.60;;;6.53;;
61911;SDS011;49973;52.084;5.412;2023-03-01T08:06:03;15.97;;;7.43;;
61911;SDS011;49973;52.084;5.412;2023-03-01T08:08:34;8.67;;;5.90;;
61911;SDS011;49973;52.084;5.412;2023-03-01T08:11:04;8.23;;;5.90;;
61911;SDS011;49973;52.084;5.412;2023-03-01T08:13:34;9.20;;;6.13;;
61911;SDS011;49973;52.084;5.412;2023-03-01T08:16:03;10.50;;;6.47;;
61911;SDS011;49973;52.084;5.412;2023-03-01T08:18:35;9.83;;;6.07;;
61911;SDS011;49973;52.084;5.412;2023-03-01T08:21:03;8.13;;;4.97;;
61911;SDS011;49973;52.084;5.412;2023-03-01T08:23:33;8.80;;;5.97;;
61911;SDS011;49973;52.084;5.412;2023-03-01T08:26:03;13.20;;;6.57;;
61911;SDS011;49973;52.084;5.412;2023-03-01T08:28:33;11.77;;;6.50;;
61911;SDS011;49973;52.084;5.412;2023-03-01T08:31:02;18.80;;;7.07;;
61911;SDS011;49973;52.084;5.412;2023-03-01T08:33:42;8.17;;;5.47;;
61911;SDS011;49973;52.084;5.412;2023-03-01T08:36:11;12.97;;;7.07;;
61911;SDS011;49973;52.084;5.412;2023-03-01T08:38:40;12.60;;;6.63;;
61911;SDS011;49973;52.084;5.412;2023-03-01T08:41:08;12.20;;;7.47;;
61911;SDS011;49973;52.084;5.412;2023-03-01T08:43:37;8.57;;;6.00;;
61911;SDS011;49973;52.084;5.412;2023-03-01T08:46:06;10.80;;;6.53;;
61911;SDS011;49973;52.084;5.412;2023-03-01T08:48:35;11.37;;;6.37;;
61911;SDS011;49973;52.084;5.412;2023-03-01T08:51:09;11.77;;;6.33;;
61911;SDS011;49973;52.084;5.412;2023-03-01T08:53:39;9.90;;;5.87;;
61911;SDS011;49973;52.084;5.412;2023-03-01T08:56:08;23.20;;;6.87;;
61911;SDS011;49973;52.084;5.412;2023-03-01T08:58:38;11.13;;;6.00;;
61911;SDS011;49973;52.084;5.412;2023-03-01T09:01:08;10.47;;;6.37;;
61911;SDS011;49973;52.084;5.412;2023-03-01T09:03:37;10.20;;;5.60;;
61911;SDS011;49973;52.084;5.412;2023-03-01T09:06:06;12.90;;;6.17;;
61911;SDS011;49973;52.084;5.412;2023-03-01T09:08:37;8.10;;;5.80;;
61911;SDS011;49973;52.084;5.412;2023-03-01T09:11:07;11.77;;;6.43;;
61911;SDS011;49973;52.084;5.412;2023-03-01T09:13:37;10.47;;;6.03;;
61911;SDS011;49973;52.084;5.412;2023-03-01T09:16:10;16.57;;;6.00;;
61911;SDS011;49973;52.084;5.412;2023-03-01T09:18:41;22.53;;;7.17;;
61911;SDS011;49973;52.084;5.412;2023-03-01T09:21:11;9.07;;;5.40;;
61911;SDS011;49973;52.084;5.412;2023-03-01T09:23:42;23.70;;;6.07;;
61911;SDS011;49973;52.084;5.412;2023-03-01T09:26:13;10.80;;;6.20;;
61911;SDS011;49973;52.084;5.412;2023-03-01T09:28:43;6.93;;;4.30;;
61911;SDS011;49973;52.084;5.412;2023-03-01T09:31:13;7.33;;;4.33;;
61911;SDS011;49973;52.084;5.412;2023-03-01T09:33:44;7.00;;;4.47;;
61911;SDS011;49973;52.084;5.412;2023-03-01T09:36:15;7.17;;;3.87;;
61911;SDS011;49973;52.084;5.412;2023-03-01T09:38:47;5.70;;;4.20;;
61911;SDS011;49973;52.084;5.412;2023-03-01T09:41:21;7.87;;;4.60;;
61911;SDS011;49973;52.084;5.412;2023-03-01T09:44:09;8.63;;;4.67;;
61911;SDS011;49973;52.084;5.412;2023-03-01T09:46:42;13.13;;;4.80;;
61911;SDS011;49973;52.084;5.412;2023-03-01T09:49:14;6.23;;;4.10;;
61911;SDS011;49973;52.084;5.412;2023-03-01T09:51:50;5.30;;;3.70;;
61911;SDS011;49973;52.084;5.412;2023-03-01T09:54:25;11.23;;;4.47;;
61911;SDS011;49973;52.084;5.412;2023-03-01T09:56:59;6.90;;;4.17;;
61911;SDS011;49973;52.084;5.412;2023-03-01T09:59:44;6.10;;;3.63;;
61911;SDS011;49973;52.084;5.412;2023-03-01T10:02:37;7.43;;;4.10;;
61911;SDS011;49973;52.084;5.412;2023-03-01T10:05:12;5.67;;;3.87;;
61911;SDS011;49973;52.084;5.412;2023-03-01T10:08:02;7.37;;;3.50;;
61911;SDS011;49973;52.084;5.412;2023-03-01T10:10:44;5.57;;;3.00;;
61911;SDS011;49973;52.084;5.412;2023-03-01T10:13:16;5.63;;;3.00;;
61911;SDS011;49973;52.084;5.412;2023-03-01T10:15:47;7.00;;;3.23;;
61911;SDS011;49973;52.084;5.412;2023-03-01T10:18:22;4.97;;;3.20;;
61911;SDS011;49973;52.084;5.412;2023-03-01T10:20:54;6.40;;;3.77;;
61911;SDS011;49973;52.084;5.412;2023-03-01T10:23:27;9.70;;;3.50;;
61911;SDS011;49973;52.084;5.412;2023-03-01T10:26:15;4.47;;;3.13;;
61911;SDS011;49973;52.084;5.412;2023-03-01T10:28:55;4.13;;;3.10;;
61911;SDS011;49973;52.084;5.412;2023-03-01T10:31:33;5.67;;;3.23;;
61911;SDS011;49973;52.084;5.412;2023-03-01T10:34:13;8.60;;;3.40;;
61911;SDS011;49973;52.084;5.412;2023-03-01T10:36:44;5.23;;;3.17;;
61911;SDS011;49973;52.084;5.412;2023-03-01T10:39:18;3.97;;;2.50;;
61911;SDS011;49973;52.084;5.412;2023-03-01T10:41:54;6.53;;;3.23;;
61911;SDS011;49973;52.084;5.412;2023-03-01T10:44:35;4.67;;;2.87;;
61911;SDS011;49973;52.084;5.412;2023-03-01T10:47:08;5.47;;;2.33;;
61911;SDS011;49973;52.084;5.412;2023-03-01T10:49:53;5.97;;;2.63;;
61911;SDS011;49973;52.084;5.412;2023-03-01T10:52:24;2.73;;;2.20;;
61911;SDS011;49973;52.084;5.412;2023-03-01T10:54:55;2.37;;;2.00;;
61911;SDS011;49973;52.084;5.412;2023-03-01T10:57:35;5.97;;;2.70;;
61911;SDS011;49973;52.084;5.412;2023-03-01T11:00:22;3.27;;;2.43;;
61911;SDS011;49973;52.084;5.412;2023-03-01T11:08:29;4.27;;;2.77;;
61911;SDS011;49973;52.084;5.412;2023-03-01T11:11:03;2.90;;;1.97;;
61911;SDS011;49973;52.084;5.412;2023-03-01T11:13:36;3.23;;;2.40;;
61911;SDS011;49973;52.084;5.412;2023-03-01T11:16:10;4.63;;;2.50;;
61911;SDS011;49973;52.084;5.412;2023-03-01T11:18:40;3.83;;;2.90;;
61911;SDS011;49973;52.084;5.412;2023-03-01T11:21:14;2.67;;;2.17;;
61911;SDS011;49973;52.084;5.412;2023-03-01T11:23:43;4.60;;;2.57;;
61911;SDS011;49973;52.084;5.412;2023-03-01T11:26:14;4.00;;;2.20;;
61911;SDS011;49973;52.084;5.412;2023-03-01T11:28:48;6.07;;;2.60;;
61911;SDS011;49973;52.084;5.412;2023-03-01T11:31:19;1.73;;;1.50;;
61911;SDS011;49973;52.084;5.412;2023-03-01T11:33:52;6.93;;;2.30;;
61911;SDS011;49973;52.084;5.412;2023-03-01T11:36:26;5.07;;;2.33;;
61911;SDS011;49973;52.084;5.412;2023-03-01T11:39:01;2.33;;;1.83;;
61911;SDS011;49973;52.084;5.412;2023-03-01T11:41:38;4.37;;;2.07;;
61911;SDS011;49973;52.084;5.412;2023-03-01T11:44:11;5.67;;;2.47;;
61911;SDS011;49973;52.084;5.412;2023-03-01T11:46:51;4.50;;;2.83;;
61911;SDS011;49973;52.084;5.412;2023-03-01T11:49:40;4.23;;;2.63;;
61911;SDS011;49973;52.084;5.412;2023-03-01T11:52:21;2.70;;;2.00;;
61911;SDS011;49973;52.084;5.412;2023-03-01T11:55:04;2.50;;;2.20;;
61911;SDS011;49973;52.084;5.412;2023-03-01T11:57:49;4.77;;;2.80;;
61911;SDS011;49973;52.084;5.412;2023-03-01T12:00:36;4.10;;;2.60;;
61911;SDS011;49973;52.084;5.412;2023-03-01T12:03:17;3.60;;;2.63;;
61911;SDS011;49973;52.084;5.412;2023-03-01T12:06:02;3.37;;;2.50;;
61911;SDS011;49973;52.084;5.412;2023-03-01T12:08:51;6.43;;;2.93;;
61911;SDS011;49973;52.084;5.412;2023-03-01T12:11:34;3.73;;;2.60;;
61911;SDS011;49973;52.084;5.412;2023-03-01T12:14:14;3.43;;;2.07;;
61911;SDS011;49973;52.084;5.412;2023-03-01T12:17:05;3.40;;;2.67;;
61911;SDS011;49973;52.084;5.412;2023-03-01T12:19:43;3.17;;;2.27;;
61911;SDS011;49973;52.084;5.412;2023-03-01T12:22:29;6.23;;;2.70;;
61911;SDS011;49973;52.084;5.412;2023-03-01T12:25:05;3.77;;;2.63;;
61911;SDS011;49973;52.084;5.412;2023-03-01T12:27:48;4.10;;;2.60;;
61911;SDS011;49973;52.084;5.412;2023-03-01T12:30:29;5.03;;;2.10;;
61911;SDS011;49973;52.084;5.412;2023-03-01T12:33:10;4.40;;;2.50;;
61911;SDS011;49973;52.084;5.412;2023-03-01T12:38:49;5.57;;;2.20;;
61911;SDS011;49973;52.084;5.412;2023-03-01T12:41:26;6.97;;;3.07;;
61911;SDS011;49973;52.084;5.412;2023-03-01T12:44:15;3.87;;;2.33;;
61911;SDS011;49973;52.084;5.412;2023-03-01T12:47:02;5.70;;;2.70;;
61911;SDS011;49973;52.084;5.412;2023-03-01T12:49:41;3.70;;;2.40;;
61911;SDS011;49973;52.084;5.412;2023-03-01T12:52:14;4.10;;;2.50;;
61911;SDS011;49973;52.084;5.412;2023-03-01T12:54:49;5.07;;;2.97;;
61911;SDS011;49973;52.084;5.412;2023-03-01T12:57:25;5.93;;;3.10;;
61911;SDS011;49973;52.084;5.412;2023-03-01T13:00:08;6.00;;;2.80;;
61911;SDS011;49973;52.084;5.412;2023-03-01T13:02:49;3.97;;;2.77;;
61911;SDS011;49973;52.084;5.412;2023-03-01T13:05:36;8.60;;;2.87;;
61911;SDS011;49973;52.084;5.412;2023-03-01T13:08:11;4.40;;;2.47;;
61911;SDS011;49973;52.084;5.412;2023-03-01T13:10:47;3.47;;;2.50;;
61911;SDS011;49973;52.084;5.412;2023-03-01T13:13:21;6.07;;;2.60;;
61911;SDS011;49973;52.084;5.412;2023-03-01T13:15:51;24.20;;;3.03;;
61911;SDS011;49973;52.084;5.412;2023-03-01T13:18:28;3.97;;;2.70;;
61911;SDS011;49973;52.084;5.412;2023-03-01T13:21:03;3.23;;;2.40;;
61911;SDS011;49973;52.084;5.412;2023-03-01T13:23:33;4.00;;;2.57;;
61911;SDS011;49973;52.084;5.412;2023-03-01T13:26:11;4.63;;;2.63;;
61911;SDS011;49973;52.084;5.412;2023-03-01T13:28:48;3.53;;;1.97;;
61911;SDS011;49973;52.084;5.412;2023-03-01T13:34:42;6.53;;;3.10;;
61911;SDS011;49973;52.084;5.412;2023-03-01T13:37:24;4.30;;;2.50;;
61911;SDS011;49973;52.084;5.412;2023-03-01T13:39:57;3.30;;;2.30;;
61911;SDS011;49973;52.084;5.412;2023-03-01T13:42:38;2.50;;;2.27;;
61911;SDS011;49973;52.084;5.412;2023-03-01T13:45:17;3.37;;;2.27;;
61911;SDS011;49973;52.084;5.412;2023-03-01T13:48:03;4.03;;;2.90;;
61911;SDS011;49973;52.084;5.412;2023-03-01T13:50:38;4.10;;;2.23;;
61911;SDS011;49973;52.084;5.412;2023-03-01T13:53:17;4.80;;;2.60;;
61911;SDS011;49973;52.084;5.412;2023-03-01T13:55:48;3.67;;;2.43;;
61911;SDS011;49973;52.084;5.412;2023-03-01T13:58:23;2.83;;;1.93;;
61911;SDS011;49973;52.084;5.412;2023-03-01T14:00:56;3.07;;;2.27;;
61911;SDS011;49973;52.084;5.412;2023-03-01T14:03:27;2.40;;;2.03;;
61911;SDS011;49973;52.084;5.412;2023-03-01T14:05:59;7.67;;;2.23;;
61911;SDS011;49973;52.084;5.412;2023-03-01T14:08:42;3.93;;;2.27;;
61911;SDS011;49973;52.084;5.412;2023-03-01T14:14:21;3.70;;;2.40;;
61911;SDS011;49973;52.084;5.412;2023-03-01T14:17:12;3.50;;;2.37;;
61911;SDS011;49973;52.084;5.412;2023-03-01T14:19:54;3.53;;;2.27;;
61911;SDS011;49973;52.084;5.412;2023-03-01T14:22:26;4.07;;;2.40;;
61911;SDS011;49973;52.084;5.412;2023-03-01T14:24:58;4.23;;;2.47;;
61911;SDS011;49973;52.084;5.412;2023-03-01T14:27:30;5.60;;;2.27;;
61911;SDS011;49973;52.084;5.412;2023-03-01T14:30:04;4.40;;;2.20;;
61911;SDS011;49973;52.084;5.412;2023-03-01T14:32:40;3.73;;;2.33;;
61911;SDS011;49973;52.084;5.412;2023-03-01T14:35:18;4.73;;;2.80;;
61911;SDS011;49973;52.084;5.412;2023-03-01T14:37:49;6.23;;;2.83;;
61911;SDS011;49973;52.084;5.412;2023-03-01T14:40:26;2.50;;;2.30;;
61911;SDS011;49973;52.084;5.412;2023-03-01T14:42:59;3.63;;;2.70;;
61911;SDS011;49973;52.084;5.412;2023-03-01T14:45:29;5.03;;;3.10;;
61911;SDS011;49973;52.084;5.412;2023-03-01T14:47:59;9.20;;;4.30;;
61911;SDS011;49973;52.084;5.412;2023-03-01T14:50:29;3.93;;;2.30;;
61911;SDS011;49973;52.084;5.412;2023-03-01T14:53:00;3.90;;;2.33;;
61911;SDS011;49973;52.084;5.412;2023-03-01T14:55:33;4.33;;;2.30;;
61911;SDS011;49973;52.084;5.412;2023-03-01T14:58:06;10.43;;;2.60;;
61911;SDS011;49973;52.084;5.412;2023-03-01T15:00:39;5.80;;;3.00;;
61911;SDS011;49973;52.084;5.412;2023-03-01T15:03:19;5.87;;;3.63;;
61911;SDS011;49973;52.084;5.412;2023-03-01T15:05:55;4.27;;;2.37;;
61911;SDS011;49973;52.084;5.412;2023-03-01T15:08:24;2.93;;;2.20;;
61911;SDS011;49973;52.084;5.412;2023-03-01T15:11:03;5.03;;;2.77;;
61911;SDS011;49973;52.084;5.412;2023-03-01T15:13:35;4.93;;;2.50;;
61911;SDS011;49973;52.084;5.412;2023-03-01T15:16:07;3.70;;;2.47;;
61911;SDS011;49973;52.084;5.412;2023-03-01T15:18:42;7.17;;;2.57;;
61911;SDS011;49973;52.084;5.412;2023-03-01T15:21:15;4.00;;;2.40;;
61911;SDS011;49973;52.084;5.412;2023-03-01T15:23:48;8.00;;;2.67;;
61911;SDS011;49973;52.084;5.412;2023-03-01T15:26:22;3.73;;;2.20;;
61911;SDS011;49973;52.084;5.412;2023-03-01T15:28:55;5.60;;;2.90;;